aviador You're here:

EYVI Decoded Metar

VILNIUS INTL in LITHUANIA
Report Time2017-08-20 13:20:00
UTC Time2017-08-20 13:40:12
Flight Rules vfr VFR
Wind030° at 11 kt
W.Decomp.*RWY 02: 11.0 kt HW 0.8 kt RCW
W.Rank030° ranks 33
Current wind is above 030° avg. (5.9)
Visibility9999 m
Phenomena:N/A
Clouds:Scattered 007 Hf
Broken CB 039 Hf
Expected CloudBase > 400 ft AGL from Temp-Dew spread
Ceiling3,900 ft
Temp16°C (ISA +2)
Dew Point15°C (94% RH)
AAT13.7°C
QNH1017 hPa
Density Alt1,010 ft
Elevation646 ft
Report Wrong Elevation
Raw Report
EYVI 201320Z 03011KT 9999 SCT007 BKN039CB 16/15 Q1017 NOSIG=

Extra information for EYVI:More info

Metar Taf Metar & Taf Last 4 Metars F.Rules Stats Wind Profile Meteogram Temp Stats Airport Information Weather charts Add Link Nearby VenuesMetar ALERT Operation Metar Decoded Social comments